Terminal Aerodrome Forecast
Issued by NWS

Home | Current Version | Previous Version | Graphics & Text | Print | Product List | Glossary Off
Versions: 1 2 3 4 5 6 7 8 9 10 11 12 13 14 15 16

000
FTUS43 KMPX 251100
TAFAXN
TAF
KAXN 251131Z 2512/2612 31012KT P6SM SCT110 BKN250
     FM252300 32005KT P6SM SKC
     FM260900 13008KT P6SM SCT250=

USA.gov is the U.S. government's official web portal to all federal, state and local government web resources and services.